createdAt,value
2023-02-02T00:01:15.486Z,98750.21
2023-02-02T00:03:42.639Z,98753.11
2023-02-02T00:06:10.200Z,98748.88
2023-02-02T00:08:38.351Z,98748.02
2023-02-02T00:11:06.608Z,98742.35
2023-02-02T00:13:34.158Z,98740.57
2023-02-02T00:16:41.078Z,98739.74
2023-02-02T00:19:09.987Z,98738.71
2023-02-02T00:21:38.331Z,98736.39
2023-02-02T00:24:07.643Z,98736.38
2023-02-02T00:26:35.714Z,98745.55
2023-02-02T00:29:03.530Z,98751.82
2023-02-02T00:31:31.222Z,98754.03
2023-02-02T00:33:58.497Z,98755.59
2023-02-02T00:36:26.309Z,98751.14
2023-02-02T00:38:53.742Z,98749.67
2023-02-02T00:41:21.050Z,98752.89
2023-02-02T00:44:09.371Z,98746.71
2023-02-02T00:46:39.877Z,98743.07
2023-02-02T00:49:07.851Z,98738.52
2023-02-02T00:51:36.824Z,98733.30
2023-02-02T00:54:04.755Z,98734.95
2023-02-02T00:56:32.291Z,98735.39
2023-02-02T00:58:59.696Z,98735.89
2023-02-02T01:01:27.360Z,98736.98
2023-02-02T01:03:54.713Z,98733.98
2023-02-02T01:06:21.914Z,98736.23
2023-02-02T01:08:49.072Z,98731.69
2023-02-02T01:11:17.291Z,98733.10
2023-02-02T01:13:44.571Z,98731.17
2023-02-02T01:16:12.185Z,98730.73
2023-02-02T01:18:40.284Z,98726.73
2023-02-02T01:21:10.821Z,98725.34
2023-02-02T01:23:39.216Z,98726.98
2023-02-02T01:26:10.815Z,98725.66
2023-02-02T01:28:38.427Z,98723.21
2023-02-02T01:31:19.769Z,98727.48
2023-02-02T01:33:48.430Z,98727.60
2023-02-02T01:36:18.783Z,98725.72
2023-02-02T01:38:46.794Z,98720.05
2023-02-02T01:41:18.374Z,98724.78
2023-02-02T01:43:46.624Z,98720.64
2023-02-02T01:46:16.497Z,98723.36
2023-02-02T01:48:51.917Z,98722.65
2023-02-02T01:51:35.501Z,98718.70
2023-02-02T01:54:05.801Z,98720.79
2023-02-02T01:56:43.186Z,98716.52
2023-02-02T01:59:13.028Z,98716.20
2023-02-02T02:01:40.253Z,98714.71
2023-02-02T02:04:07.429Z,98717.20
2023-02-02T02:06:34.681Z,98713.70
2023-02-02T02:09:05.030Z,98715.63
2023-02-02T02:11:34.896Z,98714.97
2023-02-02T02:14:27.216Z,98719.30
2023-02-02T02:17:39.575Z,98720.28
2023-02-02T02:20:40.851Z,98715.83
2023-02-02T02:23:36.031Z,98708.29
2023-02-02T02:26:37.050Z,98708.34
2023-02-02T02:29:27.091Z,98714.81
2023-02-02T02:32:14.272Z,98709.48
2023-02-02T02:35:06.417Z,98710.48
2023-02-02T02:37:58.178Z,98714.95
2023-02-02T02:40:40.350Z,98714.91
2023-02-02T02:43:20.531Z,98714.35
2023-02-02T02:45:48.866Z,98719.12
2023-02-02T02:48:16.834Z,98720.94
2023-02-02T02:50:44.645Z,98721.64
2023-02-02T02:53:18.938Z,98719.17
2023-02-02T02:55:54.823Z,98727.11
2023-02-02T02:58:37.155Z,98723.98
2023-02-02T03:01:18.388Z,98722.17
2023-02-02T03:04:07.216Z,98721.52
2023-02-02T03:07:00.355Z,98720.10
2023-02-02T03:09:34.927Z,98716.82
2023-02-02T03:12:02.509Z,98720.76
2023-02-02T03:14:29.864Z,98721.71
2023-02-02T03:16:57.053Z,98719.08
2023-02-02T03:19:24.297Z,98723.10
2023-02-02T03:21:51.427Z,98718.41
2023-02-02T03:24:18.673Z,98719.58
2023-02-02T03:26:46.735Z,98720.42
2023-02-02T03:29:14.128Z,98713.23
2023-02-02T03:31:41.424Z,98713.95
2023-02-02T03:34:08.762Z,98712.70
2023-02-02T03:36:36.011Z,98714.28
2023-02-02T03:39:03.224Z,98712.58
2023-02-02T03:41:30.415Z,98711.23
2023-02-02T03:43:57.695Z,98714.27
2023-02-02T03:46:25.076Z,98711.08
2023-02-02T03:48:52.278Z,98709.17
2023-02-02T03:51:19.461Z,98711.10
2023-02-02T03:53:49.589Z,98717.05
2023-02-02T03:56:17.288Z,98719.32
2023-02-02T03:58:46.461Z,98723.49
2023-02-02T04:01:14.021Z,98718.66
2023-02-02T04:03:41.410Z,98720.62
2023-02-02T04:06:09.193Z,98716.92
2023-02-02T04:08:36.367Z,98717.86
2023-02-02T04:11:03.571Z,98715.85
2023-02-02T04:13:30.979Z,98711.83
2023-02-02T04:16:00.161Z,98711.42
2023-02-02T04:18:28.144Z,98706.97
2023-02-02T04:20:59.935Z,98706.50
2023-02-02T04:23:28.542Z,98706.82
2023-02-02T04:25:56.127Z,98701.86
2023-02-02T04:28:23.989Z,98701.38
2023-02-02T04:30:55.428Z,98700.68
2023-02-02T04:33:24.427Z,98700.20
2023-02-02T04:35:52.000Z,98698.98
2023-02-02T04:38:19.693Z,98702.30
2023-02-02T04:40:48.244Z,98702.84
2023-02-02T04:43:15.676Z,98701.81
2023-02-02T04:45:42.981Z,98696.55
2023-02-02T04:48:10.259Z,98702.00
2023-02-02T04:50:37.516Z,98702.39
2023-02-02T04:53:05.069Z,98701.75
2023-02-02T04:55:36.533Z,98702.47
2023-02-02T04:58:04.755Z,98701.80
2023-02-02T05:00:31.980Z,98701.88
2023-02-02T05:03:00.528Z,98702.76
2023-02-02T05:05:27.747Z,98699.23
2023-02-02T05:07:54.971Z,98699.85
2023-02-02T05:10:22.232Z,98696.84
2023-02-02T05:12:49.369Z,98690.64
2023-02-02T05:15:16.574Z,98688.98
2023-02-02T05:17:43.799Z,98691.31
2023-02-02T05:20:11.660Z,98695.60
2023-02-02T05:22:39.304Z,98694.09
2023-02-02T05:25:07.340Z,98690.61
2023-02-02T05:27:34.842Z,98696.52
2023-02-02T05:30:02.291Z,98693.32
2023-02-02T05:32:29.967Z,98698.57
2023-02-02T05:34:57.206Z,98697.57
2023-02-02T05:37:24.360Z,98701.11
2023-02-02T05:39:53.785Z,98704.98
2023-02-02T05:42:21.475Z,98707.11
2023-02-02T05:44:48.624Z,98709.14
2023-02-02T05:47:15.808Z,98708.09
2023-02-02T05:49:43.004Z,98712.70
2023-02-02T05:52:17.871Z,98710.45
2023-02-02T05:54:45.129Z,98710.46
2023-02-02T05:57:12.392Z,98711.42
2023-02-02T05:59:39.594Z,98708.16
2023-02-02T06:02:06.819Z,98714.31
2023-02-02T06:04:33.971Z,98710.48
2023-02-02T06:07:01.047Z,98711.41
2023-02-02T06:09:28.219Z,98712.05
2023-02-02T06:11:55.397Z,98716.45
2023-02-02T06:14:22.600Z,98719.38
2023-02-02T06:16:49.867Z,98717.92
2023-02-02T06:19:17.181Z,98722.63
2023-02-02T06:21:44.407Z,98719.98
2023-02-02T06:24:11.620Z,98723.73
2023-02-02T06:26:39.064Z,98722.81
2023-02-02T06:29:06.976Z,98721.08
2023-02-02T06:31:34.469Z,98724.40
2023-02-02T06:34:01.801Z,98729.27
2023-02-02T06:36:29.005Z,98732.19
2023-02-02T06:38:57.637Z,98737.54
2023-02-02T06:41:25.361Z,98739.84
2023-02-02T06:43:52.738Z,98737.59
2023-02-02T06:46:20.047Z,98739.36
2023-02-02T06:48:47.392Z,98741.45
2023-02-02T06:51:15.052Z,98743.38
2023-02-02T06:53:42.226Z,98750.16
2023-02-02T06:56:12.555Z,98748.10
2023-02-02T06:58:40.098Z,98750.00
2023-02-02T07:01:12.229Z,98759.65
2023-02-02T07:03:39.952Z,98764.66
2023-02-02T07:06:14.546Z,98769.88
2023-02-02T07:08:42.365Z,98773.93
2023-02-02T07:11:14.578Z,98781.15
2023-02-02T07:13:47.157Z,98780.90
2023-02-02T07:16:15.647Z,98786.59
2023-02-02T07:18:43.637Z,98790.86
2023-02-02T07:21:18.190Z,98793.17
2023-02-02T07:23:45.875Z,98801.72
2023-02-02T07:26:14.387Z,98803.00
2023-02-02T07:28:42.048Z,98808.89
2023-02-02T07:31:24.483Z,98805.14
2023-02-02T07:33:53.009Z,98811.91
2023-02-02T07:36:21.867Z,98817.66
2023-02-02T07:38:53.982Z,98821.29
2023-02-02T07:41:22.237Z,98826.33
2023-02-02T07:43:50.573Z,98830.44
2023-02-02T07:46:18.765Z,98834.39
2023-02-02T07:48:46.026Z,98838.50
2023-02-02T07:51:16.072Z,98845.52
2023-02-02T07:53:45.336Z,98848.80
2023-02-02T07:56:20.949Z,98849.34
2023-02-02T07:58:48.428Z,98855.19
2023-02-02T08:01:17.028Z,98858.09
2023-02-02T08:03:44.808Z,98861.27
2023-02-02T08:06:16.067Z,98869.32
2023-02-02T08:08:43.305Z,98870.30
2023-02-02T08:11:12.283Z,98874.27
2023-02-02T08:13:41.086Z,98879.46
2023-02-02T08:16:09.400Z,98877.73
2023-02-02T08:18:37.565Z,98881.70
2023-02-02T08:21:06.496Z,98880.91
2023-02-02T08:23:33.709Z,98882.94
2023-02-02T08:26:06.985Z,98891.43
2023-02-02T08:28:35.518Z,98899.13
2023-02-02T08:31:11.430Z,98903.77
2023-02-02T08:33:39.760Z,98905.56
2023-02-02T08:36:22.688Z,98905.93
2023-02-02T08:38:50.965Z,98910.86
2023-02-02T08:41:21.248Z,98913.36
2023-02-02T08:43:48.954Z,98918.13
2023-02-02T08:46:18.590Z,98920.00
2023-02-02T08:48:46.019Z,98925.33
2023-02-02T08:51:15.910Z,98930.65
2023-02-02T08:53:43.369Z,98935.07
2023-02-02T08:56:19.897Z,98939.39
2023-02-02T08:58:49.526Z,98945.77
2023-02-02T09:01:25.853Z,98952.20
2023-02-02T09:04:01.204Z,98957.65
2023-02-02T09:06:32.555Z,98961.35
2023-02-02T09:09:00.116Z,98962.95
2023-02-02T09:11:28.292Z,98963.65
2023-02-02T09:13:57.591Z,98965.88
2023-02-02T09:16:26.593Z,98970.28
2023-02-02T09:18:55.321Z,98974.80
2023-02-02T09:21:22.987Z,98981.37
2023-02-02T09:23:51.684Z,98986.65
2023-02-02T09:26:24.561Z,98991.56
2023-02-02T09:28:57.433Z,98994.77
2023-02-02T09:31:26.220Z,99001.73
2023-02-02T09:33:53.738Z,99002.16
2023-02-02T09:36:24.287Z,99009.77
2023-02-02T09:38:51.658Z,99012.21
2023-02-02T09:41:27.583Z,99016.52
2023-02-02T09:43:57.496Z,99023.06
2023-02-02T09:46:40.084Z,99028.98
2023-02-02T09:49:12.565Z,99035.77
2023-02-02T09:51:55.384Z,99040.26
2023-02-02T09:54:33.841Z,99044.65
2023-02-02T09:57:05.933Z,99053.64
2023-02-02T09:59:39.866Z,99056.34
2023-02-02T10:02:22.737Z,99061.79
2023-02-02T10:04:58.596Z,99072.92
2023-02-02T10:07:37.623Z,99085.15
2023-02-02T10:10:26.901Z,99097.08
2023-02-02T10:13:10.580Z,99111.19
2023-02-02T10:15:56.666Z,99109.96
2023-02-02T10:18:29.993Z,99117.73
2023-02-02T10:21:03.010Z,99124.43
2023-02-02T10:23:39.331Z,99122.45
2023-02-02T10:26:19.257Z,99128.89
2023-02-02T10:29:09.180Z,99136.72
2023-02-02T10:32:10.632Z,99139.59
2023-02-02T10:35:13.649Z,99149.58
2023-02-02T10:37:54.443Z,99154.33
2023-02-02T10:40:40.115Z,99160.77
2023-02-02T10:43:47.672Z,99166.41
2023-02-02T10:46:26.279Z,99174.29
2023-02-02T10:49:20.682Z,99182.15
2023-02-02T10:52:17.741Z,99192.38
2023-02-02T10:55:04.001Z,99196.93
2023-02-02T10:57:44.197Z,99204.48
2023-02-02T11:00:22.981Z,99220.21
2023-02-02T11:02:52.694Z,99225.45
2023-02-02T11:05:41.758Z,99229.40
2023-02-02T11:08:17.856Z,99236.25
2023-02-02T11:10:46.751Z,99242.31
2023-02-02T11:14:06.607Z,99243.32
2023-02-02T11:16:43.770Z,99247.82
2023-02-02T11:19:17.588Z,99253.21
2023-02-02T11:21:50.549Z,99247.00
2023-02-02T11:24:44.725Z,99254.25
2023-02-02T11:27:20.092Z,99254.54
2023-02-02T11:29:51.888Z,99257.69
2023-02-02T11:32:30.748Z,99265.30
2023-02-02T11:35:06.941Z,99268.03
2023-02-02T11:37:51.934Z,99273.30
2023-02-02T11:40:31.010Z,99275.59
2023-02-02T11:43:01.117Z,99283.66
2023-02-02T11:45:37.617Z,99289.64
2023-02-02T11:48:15.816Z,99290.29
2023-02-02T11:50:49.292Z,99292.70
2023-02-02T11:53:42.961Z,99298.23
2023-02-02T11:56:18.936Z,99297.56
2023-02-02T11:58:55.796Z,99303.55
2023-02-02T12:01:35.051Z,99308.70
2023-02-02T12:04:21.636Z,99316.27
2023-02-02T12:06:48.939Z,99318.04
2023-02-02T12:09:24.647Z,99329.54
2023-02-02T12:12:03.955Z,99329.52
2023-02-02T12:15:09.706Z,99337.14
2023-02-02T12:17:45.254Z,99342.33
2023-02-02T12:20:36.784Z,99348.12
2023-02-02T12:23:32.291Z,99350.77
2023-02-02T12:26:13.459Z,99350.75
2023-02-02T12:28:40.727Z,99361.56
2023-02-02T12:31:13.898Z,99370.73
2023-02-02T12:33:53.619Z,99380.39
2023-02-02T12:36:29.418Z,99390.90
2023-02-02T12:39:08.989Z,99392.58
2023-02-02T12:41:42.561Z,99400.00
2023-02-02T12:44:15.879Z,99404.42
2023-02-02T12:46:46.079Z,99406.06
2023-02-02T12:49:39.824Z,99405.42
2023-02-02T12:52:22.145Z,99405.56
2023-02-02T12:55:17.014Z,99409.73
2023-02-02T12:58:01.078Z,99418.27
2023-02-02T13:00:42.793Z,99426.19
2023-02-02T13:03:21.133Z,99428.35
2023-02-02T13:06:20.083Z,99439.15
2023-02-02T13:09:02.769Z,99446.59
2023-02-02T13:11:36.328Z,99452.21
2023-02-02T13:14:21.349Z,99449.70
2023-02-02T13:16:54.362Z,99452.75
2023-02-02T13:19:45.425Z,99455.02
2023-02-02T13:22:18.480Z,99460.06
2023-02-02T13:24:49.629Z,99459.79
2023-02-02T13:27:20.926Z,99464.39
2023-02-02T13:29:53.920Z,99470.05
2023-02-02T13:32:24.085Z,99473.67
2023-02-02T13:34:59.128Z,99476.61
2023-02-02T13:37:32.299Z,99484.17
2023-02-02T13:40:04.911Z,99483.57
2023-02-02T13:43:17.468Z,99493.91
2023-02-02T13:45:51.295Z,99501.09
2023-02-02T13:48:36.939Z,99507.98
2023-02-02T13:51:13.314Z,99509.95
2023-02-02T13:53:52.394Z,99518.35
2023-02-02T13:56:38.775Z,99519.86
2023-02-02T13:59:15.069Z,99522.41
2023-02-02T14:01:50.194Z,99525.67
2023-02-02T14:04:25.538Z,99528.42
2023-02-02T14:06:58.669Z,99533.30
2023-02-02T14:09:28.952Z,99542.11
2023-02-02T14:12:00.176Z,99546.89
2023-02-02T14:14:33.554Z,99548.11
2023-02-02T14:17:19.515Z,99547.48
2023-02-02T14:19:55.508Z,99555.03
2023-02-02T14:22:51.840Z,99558.46
2023-02-02T14:25:34.414Z,99564.36
2023-02-02T14:28:04.927Z,99578.52
2023-02-02T14:30:38.786Z,99585.22
2023-02-02T14:33:24.132Z,99589.49
2023-02-02T14:35:52.920Z,99598.92
2023-02-02T14:38:26.369Z,99602.92
2023-02-02T14:41:44.210Z,99614.23
2023-02-02T14:44:11.434Z,99630.88
2023-02-02T14:46:41.050Z,99636.25
2023-02-02T14:49:13.700Z,99641.48
2023-02-02T14:52:20.816Z,99650.00
2023-02-02T14:54:49.319Z,99657.34
2023-02-02T14:57:27.938Z,99665.29
2023-02-02T14:59:59.966Z,99675.81
2023-02-02T15:02:33.797Z,99688.33
2023-02-02T15:05:29.057Z,99698.20
2023-02-02T15:08:11.413Z,99705.45
2023-02-02T15:10:48.389Z,99711.73
2023-02-02T15:13:19.173Z,99724.00
2023-02-02T15:15:49.759Z,99736.79
2023-02-02T15:18:29.674Z,99745.47
2023-02-02T15:21:01.362Z,99745.52
2023-02-02T15:23:41.496Z,99749.60
2023-02-02T15:26:33.094Z,99759.73
2023-02-02T15:29:13.993Z,99770.86
2023-02-02T15:31:47.608Z,99776.80
2023-02-02T15:34:21.880Z,99779.84
2023-02-02T15:36:54.181Z,99788.27
2023-02-02T15:39:30.080Z,99795.77
2023-02-02T15:42:17.891Z,99803.32
2023-02-02T15:44:45.814Z,99817.09
2023-02-02T15:47:18.769Z,99826.42
2023-02-02T15:49:46.436Z,99834.95
2023-02-02T15:52:19.099Z,99839.15
2023-02-02T15:54:56.845Z,99841.30
2023-02-02T15:57:36.610Z,99847.79
2023-02-02T16:00:30.108Z,99850.16
2023-02-02T16:03:27.102Z,99854.16
2023-02-02T16:05:56.763Z,99864.99
2023-02-02T16:08:32.955Z,99868.80
2023-02-02T16:11:10.645Z,99873.70
2023-02-02T16:13:39.205Z,99883.35
2023-02-02T16:16:29.111Z,99886.86
2023-02-02T16:19:14.706Z,99892.92
2023-02-02T16:22:07.829Z,99901.20
2023-02-02T16:24:39.031Z,99906.29
2023-02-02T16:27:10.304Z,99915.73
2023-02-02T16:29:40.318Z,99916.77
2023-02-02T16:32:26.811Z,99926.90
2023-02-02T16:34:54.415Z,99936.74
2023-02-02T16:37:28.402Z,99946.84
2023-02-02T16:39:58.097Z,99949.52
2023-02-02T16:42:30.518Z,99957.77
2023-02-02T16:44:59.990Z,99970.56
2023-02-02T16:47:27.249Z,99976.05
2023-02-02T16:50:06.025Z,99978.95
2023-02-02T16:52:35.259Z,99979.67
2023-02-02T16:55:04.688Z,99984.88
2023-02-02T16:57:34.497Z,99992.58
2023-02-02T17:00:09.170Z,99998.59
2023-02-02T17:02:41.117Z,100005.02
2023-02-02T17:05:18.125Z,100006.84
2023-02-02T17:07:58.467Z,100012.31
2023-02-02T17:10:33.105Z,100024.66
2023-02-02T17:13:02.281Z,100031.89
2023-02-02T17:15:35.696Z,100040.64
2023-02-02T17:18:05.321Z,100049.23
2023-02-02T17:20:34.782Z,100055.05
2023-02-02T17:23:05.244Z,100061.23
2023-02-02T17:25:37.207Z,100069.64
2023-02-02T17:28:10.003Z,100078.86
2023-02-02T17:30:39.776Z,100088.09
2023-02-02T17:33:14.937Z,100095.42
2023-02-02T17:35:53.722Z,100104.82
2023-02-02T17:38:22.068Z,100106.20
2023-02-02T17:40:50.682Z,100110.95
2023-02-02T17:43:18.061Z,100116.31
2023-02-02T17:45:45.423Z,100120.52
2023-02-02T17:48:14.204Z,100126.55
2023-02-02T17:50:42.943Z,100128.91
2023-02-02T17:53:17.671Z,100133.86
2023-02-02T17:55:46.413Z,100141.91
2023-02-02T17:58:17.281Z,100145.11
2023-02-02T18:00:48.013Z,100144.79
2023-02-02T18:03:24.010Z,100148.02
2023-02-02T18:05:51.723Z,100159.83
2023-02-02T18:08:19.161Z,100164.23
2023-02-02T18:10:46.309Z,100168.50
2023-02-02T18:13:19.476Z,100174.42
2023-02-02T18:15:47.550Z,100177.98
2023-02-02T18:18:14.885Z,100180.02
2023-02-02T18:20:47.075Z,100184.21
2023-02-02T18:23:15.377Z,100191.84
2023-02-02T18:25:43.317Z,100193.30
2023-02-02T18:28:11.157Z,100195.63
2023-02-02T18:30:39.694Z,100199.18
2023-02-02T18:33:10.880Z,100202.48
2023-02-02T18:35:42.657Z,100211.30
2023-02-02T18:38:11.031Z,100209.91
2023-02-02T18:40:38.600Z,100214.83
2023-02-02T18:43:05.766Z,100218.18
2023-02-02T18:45:33.019Z,100219.80
2023-02-02T18:48:00.166Z,100225.46
2023-02-02T18:50:27.681Z,100235.10
2023-02-02T18:52:56.936Z,100235.77
2023-02-02T18:55:24.612Z,100245.27
2023-02-02T18:57:52.830Z,100252.48
2023-02-02T19:00:22.119Z,100257.81
2023-02-02T19:02:49.450Z,100263.46
2023-02-02T19:05:35.845Z,100267.30
2023-02-02T19:08:04.204Z,100279.13
2023-02-02T19:10:31.715Z,100285.58
2023-02-02T19:13:12.506Z,100289.96
2023-02-02T19:15:41.802Z,100292.79
2023-02-02T19:18:15.526Z,100295.86
2023-02-02T19:20:43.337Z,100294.27
2023-02-02T19:23:11.987Z,100294.88
2023-02-02T19:25:45.524Z,100302.64
2023-02-02T19:28:25.904Z,100305.74
2023-02-02T19:30:55.423Z,100309.44
2023-02-02T19:33:32.700Z,100312.08
2023-02-02T19:36:00.001Z,100321.84
2023-02-02T19:38:29.690Z,100328.10
2023-02-02T19:40:57.053Z,100328.30
2023-02-02T19:43:27.906Z,100331.27
2023-02-02T19:45:59.611Z,100331.41
2023-02-02T19:48:34.977Z,100335.34
2023-02-02T19:51:42.166Z,100335.17
2023-02-02T19:54:29.209Z,100338.63
2023-02-02T19:57:31.205Z,100338.03
2023-02-02T20:00:01.015Z,100346.48
2023-02-02T20:03:05.234Z,100346.45
2023-02-02T20:05:39.102Z,100345.30
2023-02-02T20:08:18.200Z,100347.32
2023-02-02T20:10:46.324Z,100345.64
2023-02-02T20:13:18.836Z,100348.30
2023-02-02T20:15:47.227Z,100349.67
2023-02-02T20:18:21.878Z,100348.67
2023-02-02T20:20:57.152Z,100354.25
2023-02-02T20:23:43.869Z,100361.20
2023-02-02T20:26:26.131Z,100369.48
2023-02-02T20:29:03.834Z,100373.03
2023-02-02T20:31:40.850Z,100380.65
2023-02-02T20:34:25.993Z,100386.23
2023-02-02T20:36:58.430Z,100387.91
2023-02-02T20:39:34.469Z,100388.84
2023-02-02T20:42:02.712Z,100394.14
2023-02-02T20:44:31.654Z,100400.12
2023-02-02T20:47:00.535Z,100404.72
2023-02-02T20:49:31.900Z,100411.86
2023-02-02T20:52:02.007Z,100412.02
2023-02-02T20:54:29.763Z,100419.69
2023-02-02T20:56:57.758Z,100423.75
2023-02-02T20:59:24.987Z,100421.75
2023-02-02T21:01:53.139Z,100427.04
2023-02-02T21:04:21.664Z,100435.96
2023-02-02T21:06:49.353Z,100440.20
2023-02-02T21:09:18.052Z,100446.66
2023-02-02T21:11:45.481Z,100450.44
2023-02-02T21:14:12.702Z,100457.95
2023-02-02T21:16:40.058Z,100460.71
2023-02-02T21:19:07.313Z,100459.58
2023-02-02T21:21:34.497Z,100462.63
2023-02-02T21:24:02.068Z,100461.34
2023-02-02T21:26:30.923Z,100463.55
2023-02-02T21:28:59.108Z,100467.52
2023-02-02T21:31:27.235Z,100463.24
2023-02-02T21:33:54.704Z,100463.68
2023-02-02T21:36:38.484Z,100464.39
2023-02-02T21:39:16.156Z,100460.67
2023-02-02T21:41:43.974Z,100467.66
2023-02-02T21:44:19.785Z,100478.02
2023-02-02T21:46:50.358Z,100486.95
2023-02-02T21:49:24.266Z,100495.09
2023-02-02T21:51:54.805Z,100503.61
2023-02-02T21:54:27.402Z,100505.75
2023-02-02T21:56:55.179Z,100511.39
2023-02-02T21:59:24.895Z,100518.33
2023-02-02T22:01:52.907Z,100514.41
2023-02-02T22:04:23.021Z,100511.38
2023-02-02T22:06:53.265Z,100510.59
2023-02-02T22:09:23.843Z,100516.08
2023-02-02T22:11:53.200Z,100515.00
2023-02-02T22:14:39.117Z,100524.93
2023-02-02T22:17:33.120Z,100526.48
2023-02-02T22:20:03.068Z,100533.98
2023-02-02T22:22:35.471Z,100541.52
2023-02-02T22:25:21.072Z,100545.17
2023-02-02T22:27:53.064Z,100548.38
2023-02-02T22:30:36.960Z,100553.25
2023-02-02T22:33:06.584Z,100563.11
2023-02-02T22:35:34.489Z,100558.38
2023-02-02T22:38:02.638Z,100557.20
2023-02-02T22:40:30.500Z,100559.38
2023-02-02T22:43:00.231Z,100552.55
2023-02-02T22:45:28.251Z,100553.98
2023-02-02T22:47:55.532Z,100549.30
2023-02-02T22:50:26.160Z,100546.54
2023-02-02T22:52:53.592Z,100550.92
2023-02-02T22:55:20.903Z,100550.98
2023-02-02T22:57:48.488Z,100548.69
2023-02-02T23:00:22.210Z,100544.96
2023-02-02T23:02:49.476Z,100543.86
2023-02-02T23:05:18.538Z,100553.02
2023-02-02T23:07:47.711Z,100555.71
2023-02-02T23:10:18.345Z,100558.55
2023-02-02T23:12:46.823Z,100558.69
2023-02-02T23:15:14.639Z,100561.48
2023-02-02T23:17:42.231Z,100559.52
2023-02-02T23:20:13.626Z,100557.63
2023-02-02T23:22:40.930Z,100564.09
2023-02-02T23:25:09.104Z,100567.41
2023-02-02T23:27:36.620Z,100565.20
2023-02-02T23:30:04.448Z,100565.98
2023-02-02T23:32:31.682Z,100572.40
2023-02-02T23:34:58.963Z,100576.88
2023-02-02T23:37:26.239Z,100582.18
2023-02-02T23:39:53.446Z,100582.67
2023-02-02T23:42:20.694Z,100580.52
2023-02-02T23:44:48.156Z,100581.48
2023-02-02T23:47:15.867Z,100587.33
2023-02-02T23:49:43.759Z,100594.47
2023-02-02T23:52:11.471Z,100591.75
2023-02-02T23:54:39.109Z,100594.91
2023-02-02T23:57:06.418Z,100599.69
2023-02-02T23:59:33.665Z,100602.52
